.
WxDataArchive / Data Records for 2013-10-31
2013-10-30 October 2013 2013-11-01

Data Records for Thursday, 31 October 2013

Time	Temp	Chill	HIndex	Humid	Dewpt	 Wind 	HiWind	WindDir	Rain 	Barom 
-----	----	-----	------	-----	-----	------	------	-------	-----	----- 
00:00	61.0	61.0	61.0	95	59.6	0	3	0	0.00	29.909 
00:05	61.2	61.2	61.2	95	59.8	1	2	225	0.00	29.909 
00:10	61.2	61.2	61.2	95	59.8	0	1	270	0.00	29.909 
00:15	61.0	61.0	61.0	95	59.6	0	1	270	0.00	29.893 
00:20	61.2	61.2	61.2	95	59.8	0	2	270	0.00	29.893 
00:25	61.2	61.2	61.2	95	59.8	0	2	270	0.00	29.893 
00:30	61.2	61.2	61.2	95	59.8	0	1	270	0.00	29.886 
00:35	61.2	61.2	61.2	95	59.8	0	1	270	0.00	29.886 
00:40	61.3	61.3	61.3	95	59.9	0	4	68	0.00	29.886 
00:45	61.6	61.6	61.6	96	60.4	1	3	248	0.01	29.878 
00:50	61.8	61.8	61.8	96	60.6	1	4	248	0.00	29.878 
00:55	62.0	62.0	62.0	96	60.8	0	2	248	0.00	29.878 
01:00	62.0	62.0	62.0	96	60.8	0	0	---	0.00	29.862 
01:05	62.1	62.1	62.1	96	60.9	0	0	---	0.00	29.862 
01:10	62.1	62.1	62.1	96	60.9	0	0	---	0.00	29.862 
01:15	62.3	62.3	62.3	96	61.1	0	0	---	0.00	29.856 
01:20	62.3	62.3	62.3	96	61.1	0	0	---	0.00	29.856 
01:25	62.3	62.3	62.3	96	61.1	0	1	248	0.00	29.856 
01:30	62.3	62.3	62.3	96	61.1	0	2	248	0.00	29.845 
01:35	62.3	62.3	62.3	96	61.1	0	2	248	0.00	29.845 
01:40	62.3	62.3	62.3	96	61.1	0	3	248	0.00	29.845 
01:45	62.3	62.3	62.3	96	61.1	1	4	292	0.00	29.849 
01:50	62.3	62.3	62.3	96	61.1	1	4	270	0.00	29.849 
01:55	62.4	62.4	62.4	96	61.2	1	4	270	0.01	29.849 
02:00	62.4	62.4	62.4	96	61.2	1	3	270	0.00	29.842 
02:05	62.6	62.6	62.6	96	61.4	1	6	248	0.00	29.842 
02:10	62.7	62.7	62.7	96	61.5	1	3	248	0.00	29.842 
02:15	62.7	62.7	62.7	96	61.5	1	4	248	0.00	29.838 
02:20	62.7	62.7	62.7	96	61.5	1	4	292	0.00	29.838 
02:25	62.7	62.7	62.7	96	61.5	0	2	292	0.00	29.838 
02:30	62.7	62.7	62.7	96	61.5	0	3	248	0.00	29.828 
02:35	62.6	62.6	62.6	96	61.4	1	6	248	0.00	29.828 
02:40	62.6	62.6	62.6	96	61.4	1	5	270	0.00	29.828 
02:45	62.6	62.6	62.6	96	61.4	0	4	270	0.00	29.824 
02:50	62.6	62.6	62.6	96	61.4	1	4	248	0.01	29.824 
02:55	62.6	62.6	62.6	96	61.4	1	5	248	0.00	29.824 
03:00	62.4	62.4	62.4	96	61.2	1	3	248	0.00	29.819 
03:05	62.4	62.4	62.4	96	61.2	0	4	248	0.00	29.819 
03:10	62.4	62.4	62.4	96	61.2	1	4	248	0.00	29.819 
03:15	62.4	62.4	62.4	96	61.2	1	3	225	0.01	29.815 
03:20	62.4	62.4	62.4	96	61.2	1	5	338	0.01	29.815 
03:25	62.4	62.4	62.4	96	61.2	1	4	270	0.01	29.815 
03:30	62.4	62.4	62.4	96	61.2	1	5	248	0.00	29.814 
03:35	62.4	62.4	62.4	96	61.2	1	5	270	0.00	29.814 
03:40	62.4	62.4	62.4	96	61.2	2	6	270	0.01	29.814 
03:45	62.6	62.6	62.6	96	61.4	1	3	270	0.00	29.812 
03:50	62.6	62.6	62.6	96	61.4	1	7	270	0.00	29.812 
03:55	62.6	62.6	62.6	96	61.4	1	4	248	0.00	29.812 
04:00	62.6	62.6	62.6	96	61.4	1	4	248	0.00	29.808 
04:05	62.6	62.6	62.6	96	61.4	0	4	248	0.00	29.808 
04:10	62.6	62.6	62.6	96	61.4	1	5	248	0.00	29.808 
04:15	62.4	62.4	62.4	96	61.2	1	3	248	0.00	29.801 
04:20	62.4	62.4	62.4	96	61.2	1	3	270	0.00	29.801 
04:25	62.4	62.4	62.4	96	61.2	0	2	270	0.00	29.801 
04:30	62.4	62.4	62.4	96	61.2	1	4	270	0.01	29.791 
04:35	62.4	62.4	62.4	96	61.2	1	3	270	0.00	29.791 
04:40	62.4	62.4	62.4	96	61.2	0	3	248	0.00	29.791 
04:45	62.4	62.4	62.4	96	61.2	1	3	248	0.00	29.778 
04:50	62.4	62.4	62.4	96	61.2	0	2	248	0.00	29.778 
04:55	62.4	62.4	62.4	96	61.2	1	3	248	0.00	29.778 
05:00	62.4	62.4	62.4	96	61.2	0	1	315	0.00	29.776 
05:05	62.4	62.4	62.4	96	61.2	0	6	270	0.00	29.776 
05:10	62.4	62.4	62.4	96	61.2	1	4	270	0.00	29.776 
05:15	62.4	62.4	62.4	96	61.2	1	3	248	0.00	29.769 
05:20	62.3	62.3	62.3	96	61.1	0	5	270	0.01	29.769 
05:25	62.3	62.3	62.3	96	61.1	0	2	270	0.00	29.769 
05:30	62.3	62.3	62.3	96	61.1	0	2	270	0.00	29.767 
05:35	62.3	62.3	62.3	96	61.1	0	3	270	0.00	29.767 
05:40	62.1	62.1	62.1	96	60.9	0	2	248	0.00	29.767 
05:45	62.1	62.1	62.1	96	60.9	0	3	248	0.00	29.769 
05:50	62.1	62.1	62.1	96	60.9	0	3	292	0.00	29.769 
05:55	62.0	62.0	62.0	96	60.8	0	1	292	0.00	29.769 
06:00	61.8	61.8	61.8	96	60.6	0	1	292	0.00	29.762 
06:05	61.8	61.8	61.8	96	60.6	0	2	292	0.01	29.762 
06:10	61.6	61.6	61.6	96	60.4	0	3	248	0.00	29.762 
06:15	61.6	61.6	61.6	96	60.4	0	1	248	0.00	29.756 
06:20	61.5	61.5	61.5	96	60.3	0	1	248	0.00	29.756 
06:25	61.5	61.5	61.5	96	60.3	0	1	248	0.00	29.756 
06:30	61.3	61.3	61.3	96	60.1	0	3	248	0.00	29.751 
06:35	61.3	61.3	61.3	96	60.1	0	1	248	0.01	29.751 
06:40	61.2	61.2	61.2	96	60.0	0	3	248	0.00	29.751 
06:45	61.2	61.2	61.2	96	60.0	0	3	90	0.00	29.743 
06:50	61.2	61.2	61.2	96	60.0	0	2	90	0.00	29.743 
06:55	61.2	61.2	61.2	96	60.0	0	3	270	0.00	29.743 
07:00	61.2	61.2	61.2	96	60.0	0	3	270	0.00	29.733 
07:05	61.2	61.2	61.2	96	60.0	0	1	0	0.00	29.733 
07:10	61.2	61.2	61.2	96	60.0	0	3	0	0.00	29.733 
07:15	61.2	61.2	61.2	96	60.0	0	3	248	0.00	29.733 
07:20	61.2	61.2	61.2	96	60.0	0	3	292	0.00	29.733 
07:25	61.0	61.0	61.0	96	59.8	0	2	270	0.00	29.733 
07:30	61.0	61.0	61.0	96	59.8	0	1	270	0.01	29.728 
07:35	61.0	61.0	61.0	96	59.8	0	3	270	0.00	29.728 
07:40	60.9	60.9	60.9	96	59.7	0	2	270	0.00	29.728 
07:45	60.9	60.9	60.9	96	59.7	0	3	338	0.00	29.718 
07:50	60.7	60.7	60.7	96	59.6	0	4	248	0.00	29.718 
07:55	60.7	60.7	60.7	96	59.6	0	2	248	0.00	29.718 
08:00	60.7	60.7	60.7	96	59.6	0	3	248	0.00	29.718 
08:05	60.5	60.5	60.5	95	59.1	0	2	248	0.00	29.718 
08:10	60.5	60.5	60.5	95	59.1	1	3	248	0.00	29.718 
08:15	60.5	60.5	60.5	95	59.1	0	3	270	0.01	29.718 
08:20	60.4	60.4	60.4	95	59.0	1	4	292	0.00	29.718 
08:25	60.4	60.4	60.4	95	59.0	0	3	225	0.02	29.718 
08:30	60.2	60.2	60.2	95	58.8	2	6	248	0.01	29.713 
08:35	60.1	60.1	60.1	95	58.7	2	6	270	0.01	29.713 
08:40	59.9	59.9	59.9	95	58.5	2	9	270	0.02	29.713 
08:45	59.8	59.8	59.8	95	58.4	1	9	248	0.01	29.721 
08:50	59.6	59.6	59.6	95	58.2	1	6	248	0.01	29.721 
08:55	59.5	59.5	59.5	95	58.1	2	5	248	0.02	29.721 
09:00	59.5	59.5	59.5	95	58.1	1	4	248	0.01	29.714 
09:05	59.3	59.3	59.3	95	57.9	1	5	248	0.01	29.714 
09:10	59.3	59.3	59.3	95	57.9	2	5	270	0.01	29.714 
09:15	59.2	59.2	59.2	95	57.8	2	9	248	0.01	29.708 
09:20	59.0	59.0	59.0	95	57.6	1	4	270	0.00	29.708 
09:25	58.9	58.9	58.9	95	57.5	1	4	248	0.01	29.708 
09:30	58.9	58.9	58.9	95	57.5	1	7	248	0.01	29.697 
09:35	58.7	58.7	58.7	95	57.3	1	6	270	0.00	29.697 
09:40	58.7	58.7	58.7	95	57.3	0	2	248	0.01	29.697 
09:45	58.6	58.6	58.6	95	57.2	0	2	248	0.01	29.696 
09:50	58.6	58.6	58.6	95	57.2	1	2	270	0.00	29.696 
09:55	58.6	58.6	58.6	95	57.2	1	5	90	0.01	29.696 
10:00	58.6	58.6	58.6	95	57.2	0	4	270	0.00	29.690 
10:05	58.6	58.6	58.6	95	57.2	1	4	112	0.01	29.690 
10:10	58.7	58.7	58.7	95	57.3	0	6	90	0.00	29.690 
10:15	58.7	58.7	58.7	95	57.3	0	3	90	0.00	29.675 
10:20	58.9	58.9	58.9	95	57.5	1	3	248	0.01	29.675 
10:25	58.9	58.9	58.9	95	57.5	1	6	270	0.01	29.675 
10:30	58.9	58.9	58.9	95	57.5	1	5	248	0.00	29.668 
10:35	58.9	58.9	58.9	95	57.5	1	6	248	0.00	29.668 
10:40	58.9	58.9	58.9	95	57.5	2	6	248	0.00	29.668 
10:45	58.9	58.9	58.9	95	57.5	1	5	292	0.01	29.660 
10:50	59.0	59.0	59.0	95	57.6	1	6	248	0.01	29.660 
10:55	59.0	59.0	59.0	95	57.6	1	3	248	0.00	29.660 
11:00	59.0	59.0	59.0	95	57.6	1	4	90	0.02	29.658 
11:05	59.2	59.2	59.2	95	57.8	1	5	248	0.00	29.658 
11:10	59.2	59.2	59.2	96	58.1	1	5	248	0.00	29.658 
11:15	59.3	59.3	59.3	95	57.9	1	5	270	0.00	29.655 
11:20	59.3	59.3	59.3	95	57.9	1	5	270	0.01	29.655 
11:25	59.5	59.5	59.5	96	58.4	1	6	248	0.00	29.655 
11:30	59.5	59.5	59.5	96	58.4	1	3	248	0.01	29.645 
11:35	59.6	59.6	59.6	96	58.5	1	3	270	0.00	29.645 
11:40	59.6	59.6	59.6	96	58.5	1	5	270	0.00	29.645 
11:45	59.6	59.6	59.6	96	58.5	1	5	248	0.00	29.642 
11:50	59.8	59.8	59.8	96	58.7	1	4	248	0.01	29.642 
11:55	59.8	59.8	59.8	96	58.7	1	5	248	0.00	29.642 
12:00	59.8	59.8	59.8	96	58.7	2	7	248	0.00	29.638 
12:05	59.9	59.9	59.9	96	58.8	1	4	248	0.00	29.638 
12:10	59.9	59.9	59.9	96	58.8	2	7	270	0.01	29.638 
12:15	59.9	59.9	59.9	96	58.8	1	4	292	0.00	29.629 
12:20	59.9	59.9	59.9	95	58.5	1	5	270	0.00	29.629 
12:25	59.9	59.9	59.9	95	58.5	2	10	270	0.00	29.629 
12:30	59.9	59.9	59.9	95	58.5	1	5	248	0.01	29.625 
12:35	59.9	59.9	59.9	95	58.5	2	7	248	0.00	29.625 
12:40	59.9	59.9	59.9	95	58.5	1	5	248	0.01	29.625 
12:45	59.9	59.9	59.9	95	58.5	1	4	292	0.00	29.623 
12:50	59.9	59.9	59.9	95	58.5	1	6	270	0.01	29.623 
12:55	59.9	59.9	59.9	95	58.5	1	4	292	0.00	29.623 
13:00	59.9	59.9	59.9	95	58.5	1	3	270	0.01	29.608 
13:05	59.8	59.8	59.8	95	58.4	2	9	248	0.00	29.608 
13:10	59.6	59.6	59.6	95	58.2	1	5	248	0.00	29.608 
13:15	59.6	59.6	59.6	95	58.2	1	5	248	0.00	29.593 
13:20	59.5	59.5	59.5	95	58.1	1	7	248	0.01	29.593 
13:25	59.5	59.5	59.5	95	58.1	1	5	248	0.01	29.593 
13:30	59.5	59.5	59.5	95	58.1	1	6	292	0.00	29.579 
13:35	59.3	59.3	59.3	95	57.9	1	4	248	0.00	29.579 
13:40	59.3	59.3	59.3	95	57.9	1	6	248	0.01	29.579 
13:45	59.3	59.3	59.3	95	57.9	2	7	270	0.00	29.572 
13:50	59.3	59.3	59.3	95	57.9	0	4	248	0.01	29.572 
13:55	59.3	59.3	59.3	95	57.9	1	3	45	0.01	29.572 
14:00	59.3	59.3	59.3	95	57.9	1	4	248	0.01	29.546 
14:05	59.3	59.3	59.3	95	57.9	1	3	22	0.00	29.546 
14:10	59.3	59.3	59.3	95	57.9	1	4	292	0.00	29.546 
14:15	59.3	59.3	59.3	95	57.9	1	4	248	0.01	29.528 
14:20	59.3	59.3	59.3	95	57.9	1	7	135	0.00	29.528 
14:25	59.3	59.3	59.3	95	57.9	1	4	90	0.00	29.528 
14:30	59.3	59.3	59.3	95	57.9	1	4	90	0.01	29.510 
14:35	59.3	59.3	59.3	95	57.9	1	5	68	0.00	29.510 
14:40	59.3	59.3	59.3	95	57.9	1	4	270	0.01	29.510 
14:45	59.3	59.3	59.3	95	57.9	1	4	90	0.00	29.492 
14:50	59.3	59.3	59.3	95	57.9	1	4	90	0.01	29.492 
14:55	59.2	59.2	59.2	95	57.8	1	3	315	0.00	29.492 
15:00	59.2	59.2	59.2	95	57.8	1	3	112	0.00	29.478 
15:05	59.2	59.2	59.2	95	57.8	1	5	90	0.00	29.478 
15:10	59.2	59.2	59.2	95	57.8	1	7	112	0.01	29.478 
15:15	59.2	59.2	59.2	95	57.8	2	6	68	0.00	29.464 
15:20	59.2	59.2	59.2	95	57.8	2	9	112	0.00	29.464 
15:25	59.0	59.0	59.0	95	57.6	1	3	45	0.01	29.464 
15:30	59.0	59.0	59.0	95	57.6	1	4	270	0.01	29.457 
15:35	59.0	59.0	59.0	95	57.6	1	6	90	0.00	29.457 
15:40	59.0	59.0	59.0	95	57.6	2	11	68	0.01	29.457 
15:45	58.9	58.9	58.9	95	57.5	2	9	68	0.01	29.447 
15:50	58.9	58.9	58.9	95	57.5	1	5	112	0.00	29.447 
15:55	58.9	58.9	58.9	95	57.5	1	5	90	0.01	29.447 
16:00	58.9	58.9	58.9	95	57.5	2	10	90	0.00	29.424 
16:05	58.9	58.9	58.9	95	57.5	1	4	112	0.01	29.424 
16:10	58.9	58.9	58.9	95	57.5	1	4	68	0.01	29.424 
16:15	58.9	58.9	58.9	95	57.5	1	4	315	0.00	29.419 
16:20	58.7	58.7	58.7	95	57.3	2	6	112	0.00	29.419 
16:25	58.7	58.7	58.7	95	57.3	2	10	112	0.00	29.419 
16:30	58.7	58.7	58.7	95	57.3	1	5	112	0.00	29.402 
16:35	58.7	58.7	58.7	95	57.3	2	6	90	0.00	29.402 
16:40	58.7	58.7	58.7	95	57.3	2	5	90	0.00	29.402 
16:45	58.7	58.7	58.7	95	57.3	1	3	68	0.01	29.393 
16:50	58.7	58.7	58.7	95	57.3	1	6	90	0.00	29.393 
16:55	58.7	58.7	58.7	95	57.3	1	6	68	0.00	29.393 
17:00	58.7	58.7	58.7	96	57.6	1	4	292	0.00	29.374 
17:05	58.7	58.7	58.7	95	57.3	2	4	112	0.00	29.374 
17:10	58.9	58.9	58.9	96	57.8	1	4	112	0.00	29.374 
17:15	59.0	59.0	59.0	96	57.9	1	3	112	0.00	29.367 
17:20	59.2	59.2	59.2	96	58.1	1	5	338	0.00	29.367 
17:25	59.2	59.2	59.2	96	58.1	1	9	112	0.00	29.367 
17:30	59.3	59.3	59.3	96	58.2	3	9	112	0.00	29.357 
17:35	59.5	59.5	59.5	96	58.4	2	5	90	0.00	29.357 
17:40	59.6	59.6	59.6	96	58.5	2	11	270	0.00	29.357 
17:45	59.8	59.8	59.8	96	58.7	2	9	68	0.00	29.345 
17:50	59.9	59.9	59.9	95	58.5	1	7	90	0.00	29.345 
17:55	60.1	60.1	60.1	95	58.7	1	7	90	0.00	29.345 
18:00	60.1	60.1	60.1	95	58.7	1	5	270	0.00	29.339 
18:05	60.2	60.2	60.2	95	58.8	1	6	248	0.00	29.339 
18:10	60.4	60.4	60.4	95	59.0	2	10	248	0.00	29.339 
18:15	60.5	60.5	60.5	95	59.1	2	5	248	0.00	29.329 
18:20	60.7	60.7	60.7	95	59.3	1	5	248	0.00	29.329 
18:25	60.7	60.7	60.7	95	59.3	2	9	90	0.00	29.329 
18:30	60.9	60.9	60.9	95	59.5	1	6	248	0.01	29.324 
18:35	60.9	60.9	60.9	95	59.5	1	8	112	0.00	29.324 
18:40	60.9	60.9	60.9	95	59.5	1	4	248	0.01	29.324 
18:45	60.9	60.9	60.9	95	59.5	1	5	112	0.01	29.310 
18:50	61.0	61.0	61.0	95	59.6	1	5	68	0.01	29.310 
18:55	61.0	61.0	61.0	95	59.6	1	3	248	0.01	29.310 
19:00	61.0	61.0	61.0	95	59.6	2	5	248	0.00	29.308 
19:05	61.0	61.0	61.0	95	59.6	2	7	248	0.00	29.308 
19:10	61.0	61.0	61.0	95	59.6	1	5	248	0.02	29.308 
19:15	61.0	61.0	61.0	95	59.6	1	4	248	0.01	29.308 
19:20	61.0	61.0	61.0	96	59.8	1	4	248	0.05	29.308 
19:25	61.0	61.0	61.0	96	59.8	1	4	248	0.02	29.308 
19:30	61.0	61.0	61.0	96	59.8	0	3	248	0.01	29.293 
19:35	60.9	60.9	60.9	96	59.7	0	2	248	0.01	29.293 
19:40	60.9	60.9	60.9	96	59.7	0	1	248	0.03	29.293 
19:45	60.9	60.9	60.9	96	59.7	0	1	248	0.05	29.285 
19:50	60.9	60.9	60.9	96	59.7	0	1	248	0.02	29.285 
19:55	60.7	60.7	60.7	96	59.6	0	1	248	0.05	29.285 
20:00	60.7	60.7	60.7	96	59.6	0	1	248	0.01	29.278 
20:05	60.7	60.7	60.7	96	59.6	0	1	248	0.01	29.278 
20:10	60.7	60.7	60.7	96	59.6	0	2	248	0.02	29.278 
20:15	60.9	60.9	60.9	96	59.7	0	3	248	0.01	29.281 
20:20	60.9	60.9	60.9	96	59.7	1	4	292	0.02	29.281 
20:25	61.0	61.0	61.0	96	59.8	1	4	270	0.00	29.281 
20:30	61.0	61.0	61.0	96	59.8	1	4	270	0.01	29.273 
20:35	61.0	61.0	61.0	96	59.8	1	3	270	0.01	29.273 
20:40	61.0	61.0	61.0	96	59.8	1	4	248	0.00	29.273 
20:45	60.9	60.9	60.9	96	59.7	1	5	248	0.01	29.258 
20:50	60.7	60.7	60.7	96	59.6	0	2	248	0.00	29.258 
20:55	60.7	60.7	60.7	96	59.6	1	4	248	0.00	29.258 
21:00	60.5	60.5	60.5	96	59.4	1	4	248	0.00	29.251 
21:05	60.5	60.5	60.5	96	59.4	1	4	248	0.00	29.251 
21:10	60.2	60.2	60.2	96	59.1	1	5	292	0.01	29.251 
21:15	60.1	60.1	60.1	96	59.0	1	4	270	0.00	29.250 
21:20	60.1	60.1	60.1	96	59.0	1	5	248	0.00	29.250 
21:25	59.9	59.9	59.9	96	58.8	1	4	270	0.00	29.250 
21:30	59.9	59.9	59.9	96	58.8	1	4	248	0.00	29.243 
21:35	59.8	59.8	59.8	96	58.7	1	4	270	0.01	29.243 
21:40	59.8	59.8	59.8	96	58.7	0	3	248	0.00	29.243 
21:45	59.8	59.8	59.8	96	58.7	0	2	248	0.00	29.221 
21:50	59.6	59.6	59.6	96	58.5	0	2	248	0.00	29.221 
21:55	59.6	59.6	59.6	96	58.5	0	2	248	0.01	29.221 
22:00	59.6	59.6	59.6	96	58.5	0	4	248	0.01	29.215 
22:05	59.5	59.5	59.5	96	58.4	0	2	248	0.01	29.215 
22:10	59.5	59.5	59.5	96	58.4	1	4	248	0.01	29.215 
22:15	59.3	59.3	59.3	96	58.2	1	5	270	0.02	29.221 
22:20	59.3	59.3	59.3	96	58.2	1	4	270	0.02	29.221 
22:25	59.3	59.3	59.3	96	58.2	1	4	270	0.01	29.221 
22:30	59.3	59.3	59.3	96	58.2	1	5	248	0.02	29.234 
22:35	59.3	59.3	59.3	96	58.2	3	11	248	0.01	29.234 
22:40	59.3	59.3	59.3	96	58.2	2	6	270	0.01	29.234 
22:45	59.2	59.2	59.2	96	58.1	3	7	248	0.00	29.234 
22:50	58.9	58.9	58.9	96	57.8	3	8	270	0.01	29.234 
22:55	58.7	58.7	58.7	96	57.6	3	9	270	0.00	29.234 
23:00	58.6	58.6	58.6	96	57.5	3	7	270	0.00	29.226 
23:05	58.4	58.4	58.4	96	57.3	2	5	270	0.00	29.226 
23:10	58.3	58.3	58.3	96	57.2	2	4	292	0.00	29.226 
23:15	58.1	58.1	58.1	96	57.0	2	6	270	0.00	29.234 
23:20	58.0	58.0	58.0	96	56.9	2	6	248	0.00	29.234 
23:25	57.6	57.6	57.6	96	56.5	2	6	270	0.00	29.234 
23:30	57.3	57.3	57.3	96	56.2	3	7	248	0.00	29.276 
23:35	57.0	57.0	57.0	96	55.9	3	7	270	0.01	29.276 
23:40	56.7	56.7	56.7	96	55.6	2	6	270	0.00	29.276 
23:45	56.6	56.6	56.6	96	55.5	1	3	270	0.01	29.280 
23:50	56.5	56.5	56.5	96	55.4	2	6	248	0.00	29.280 
23:55	56.3	56.3	56.3	96	55.2	2	4	248	0.01	29.280 

CoCoRaHS
IN-AL-39
A2 Web Hosting
Creative Commons License
GoDaddy
search engine by freefind advanced

loaded 2018-11-13 02:31:32 • last modified 2010-11-18 10:43:29
Privacy PolicyDisclaimer
• wx.awcolley.com is powered by PmWiki v.2002016 •
• all content (unless otherwise noted) © 2018 A W Colley